Aviation Digital Data Service (ADDS)

Output produced by METARs form (1552 UTC 23 April 2017)
found at http://www.aviationweather.gov/adds/metars/
 
KUNV 231453Z 00000KT 10SM SKC 11/03 A3015
KUNV 231353Z 00000KT 10SM SKC 10/02 A3015
KUNV 231253Z 00000KT 10SM SKC 07/02 A3014
KUNV 231153Z 00000KT 10SM SKC 04/02 A3014
KUNV 231053Z 00000KT 10SM SKC 01/00 A3012
KUNV 230953Z 00000KT 10SM SKC 02/00 A3009
KUNV 230935Z AUTO 29003KT 10SM SCT110 02/00 A3009 RMK AO2 T00240002
KUNV 230915Z AUTO 30004KT 10SM SCT090 SCT110 03/01 A3008 RMK AO2 T00290006
KUNV 230855Z AUTO 00000KT 10SM 04/01 A3009 RMK AO2 T00360009
KUNV 230835Z AUTO 00000KT 10SM 03/01 A3008 RMK AO2 T00310010
KUNV 230815Z AUTO 00000KT 10SM 03/01 A3008 RMK AO2 T00280006
KUNV 230755Z AUTO 00000KT 10SM 03/01 A3008 RMK AO2 T00290011
KUNV 230735Z AUTO 00000KT 10SM 04/01 A3008 RMK AO2 T00400011
KUNV 230715Z AUTO 00000KT 10SM 04/01 A3008 RMK AO2 T00380011
KUNV 230655Z AUTO 00000KT 10SM CLR 03/01 A3008 RMK AO2 T00340012
KUNV 230635Z AUTO 00000KT 10SM CLR 05/01 A3008 RMK AO2 T00480013
KUNV 230615Z AUTO 00000KT 10SM CLR 05/01 A3008 RMK AO2 T00480012
KUNV 230555Z AUTO 00000KT 10SM CLR 05/01 A3009 RMK AO2 T00540012 10118 20053
KUNV 230535Z AUTO 00000KT 10SM CLR 06/02 A3009 RMK AO2 T00560016
KUNV 230515Z AUTO 36004KT 10SM CLR 06/02 A3009 RMK AO2 T00570016
KUNV 230455Z AUTO 01004KT 10SM CLR 06/02 A3008 RMK AO2 T00580015
KUNV 230435Z AUTO 02005KT 10SM CLR 06/01 A3008 RMK AO2 T00590013
KUNV 230415Z AUTO 03005KT 10SM CLR 06/01 A3007 RMK AO2 T00600014
KUNV 230355Z AUTO 04005KT 10SM CLR 06/02 A3008 RMK AO2 T00620015 401300061
KUNV 230335Z AUTO 03006KT 10SM CLR 07/02 A3007 RMK AO2 T00650016
KUNV 230315Z AUTO 06004KT 10SM CLR 07/02 A3006 RMK AO2 T00660017
KUNV 230255Z AUTO 05007KT 10SM CLR 07/02 A3006 RMK AO2 T00710016
KUNV 230235Z AUTO 06005KT 10SM CLR 08/01 A3005 RMK AO2 T00810005
KUNV 230215Z AUTO 04006KT 10SM CLR 09/01 A3004 RMK AO2 T00860005
KUNV 230053Z 02007KT 10SM SKC 10/01 A3003
KUNV 222353Z 36007KT 10SM SKC 12/02 A2998
KUNV 222253Z 01007KT 10SM SKC 12/01 A2998
KUNV 222153Z 01007KT 10SM SKC 13/02 A2998
KUNV 222053Z 36007KT 10SM SKC 12/02 A2997
KUNV 221953Z 35007KT 10SM SCT120 12/02 A2998
KUNV 221853Z 35006KT 10SM BKN045 13/03 A2999
KUNV 221753Z 00000KT 10SM BKN039 OVC120 11/04 A2998
KUNV 221653Z 02004KT 10SM BKN032 10/04 A2999
KUNV 221553Z COR 03006KT 10SM BKN024 OVC029 09/04 A2998
KUNV 221453Z COR 32005KT 7SM SCT017 BKN028 08/04 A3000
KUNV 221410Z 33005KT 7SM -RA SCT017 OVC025 07/05 A3001
KUNV 221353Z 33005KT 6SM -DZ BR SCT029 OVC050 07/05 A3001
KUNV 221253Z 33006KT 5SM RA BR SCT030 BKN060 OVC070 08/04 A2998
KUNV 221153Z 33006KT 10SM SCT030 OVC080 08/04 A2998
KUNV 221053Z 32006KT 7SM -RA OVC080 08/04 A2997
KUNV 220953Z 31004KT 10SM OVC090 08/04 A2995
KUNV 220935Z AUTO 30003KT 10SM -RA OVC080 09/04 A2995 RMK AO2 T00860040
KUNV 220915Z AUTO 00000KT 10SM -DZ SCT070 OVC080 09/05 A2995 RMK AO2 T00870045
KUNV 220855Z AUTO 31003KT 10SM -RA OVC090 09/04 A2995 RMK AO2 T00900042
KUNV 220835Z AUTO 32003KT 10SM RA OVC090 10/04 A2995 RMK AO2 T00970039
KUNV 220815Z AUTO 32003KT 10SM OVC090 10/03 A2995 RMK AO2 T00980031
KUNV 220755Z AUTO 35003KT 10SM OVC100 10/03 A2995 RMK AO2 T01000032
KUNV 220735Z AUTO 35004KT 10SM OVC100 10/04 A2996 RMK AO2 T01000036
KUNV 220715Z AUTO 35003KT 10SM OVC100 10/03 A2996 RMK AO2 T01010033
KUNV 220655Z AUTO 36005KT 10SM SCT100 BKN120 10/04 A2995 RMK AO2 T00990035
KUNV 220635Z AUTO 03003KT 10SM BKN110 10/04 A2995 RMK AO2 T01030037
KUNV 220615Z AUTO 33005KT 10SM OVC100 11/04 A2995 RMK AO2 T01060040
KUNV 220555Z AUTO 36006KT 10SM BKN110 11/04 A2995 RMK AO2 T01100040 10178 20110
KUNV 220535Z AUTO 34009KT 10SM SCT120 11/05 A2996 RMK AO2 T01120047
KUNV 220515Z AUTO 35005KT 10SM SCT120 12/05 A2996 RMK AO2 T01150051
KUNV 220455Z AUTO 35007KT 10SM SCT110 12/06 A2995 RMK AO2 T01190055
KUNV 220435Z AUTO 36004KT 10SM BKN110 12/06 A2995 RMK AO2 T01210057
KUNV 220415Z AUTO 00000KT 10SM OVC110 13/06 A2996 RMK AO2 T01250057
KUNV 220355Z AUTO 33010KT 10SM BKN110 13/06 A2995 RMK AO2 T01280060 402220128